createdAt,value
2018-12-24T00:00:16.869Z,9.89
2018-12-24T00:01:16.936Z,9.80
2018-12-24T00:02:16.192Z,9.57
2018-12-24T00:03:16.467Z,9.44
2018-12-24T00:04:16.734Z,9.40
2018-12-24T00:05:16.012Z,9.31
2018-12-24T00:06:16.275Z,9.29
2018-12-24T00:07:16.533Z,9.24
2018-12-24T00:08:16.793Z,9.24
2018-12-24T00:09:16.059Z,9.29
2018-12-24T00:10:16.333Z,9.17
2018-12-24T00:11:16.370Z,9.17
2018-12-24T00:12:16.638Z,9.17
2018-12-24T00:13:16.907Z,9.17
2018-12-24T00:14:16.169Z,9.23
2018-12-24T00:15:16.433Z,9.17
2018-12-24T00:16:16.698Z,9.16
2018-12-24T00:17:16.965Z,9.13
2018-12-24T00:18:16.228Z,9.15
2018-12-24T00:19:16.490Z,9.17
2018-12-24T00:20:16.761Z,9.13
2018-12-24T00:21:16.825Z,9.13
2018-12-24T00:22:16.094Z,9.16
2018-12-24T00:23:16.358Z,9.12
2018-12-24T00:24:16.625Z,9.10
2018-12-24T00:25:16.892Z,9.16
2018-12-24T00:26:16.147Z,9.15
2018-12-24T00:27:16.407Z,9.15
2018-12-24T00:28:16.693Z,9.12
2018-12-24T00:29:16.977Z,9.13
2018-12-24T00:30:16.254Z,9.10
2018-12-24T00:31:16.320Z,9.13
2018-12-24T00:32:16.589Z,9.09
2018-12-24T00:33:16.870Z,9.09
2018-12-24T00:34:16.139Z,9.13
2018-12-24T00:35:16.406Z,9.12
2018-12-24T00:36:16.666Z,9.13
2018-12-24T00:37:16.949Z,9.13
2018-12-24T00:38:16.526Z,9.10
2018-12-24T00:39:16.793Z,9.12
2018-12-24T00:40:16.118Z,9.12
2018-12-24T00:41:16.149Z,9.09
2018-12-24T00:42:16.413Z,9.12
2018-12-24T00:43:16.700Z,9.13
2018-12-24T00:44:16.951Z,9.15
2018-12-24T00:45:16.212Z,9.15
2018-12-24T00:46:16.488Z,9.13
2018-12-24T00:47:16.741Z,9.16
2018-12-24T00:48:15.992Z,9.10
2018-12-24T00:49:16.261Z,9.10
2018-12-24T00:50:16.545Z,9.12
2018-12-24T00:51:16.584Z,9.07
2018-12-24T00:52:16.858Z,8.91
2018-12-24T00:53:16.118Z,8.88
2018-12-24T00:54:16.384Z,8.43
2018-12-24T00:55:16.647Z,8.19
2018-12-24T00:56:16.916Z,7.91
2018-12-24T00:57:16.196Z,7.84
2018-12-24T00:58:16.472Z,7.62
2018-12-24T00:59:16.742Z,7.58
2018-12-24T01:00:16.358Z,7.50
2018-12-24T01:01:16.072Z,7.41
2018-12-24T01:02:16.360Z,7.38
2018-12-24T01:03:16.663Z,7.35
2018-12-24T01:04:16.947Z,7.27
2018-12-24T01:05:16.206Z,7.23
2018-12-24T01:06:16.485Z,7.22
2018-12-24T01:07:16.735Z,7.16
2018-12-24T01:08:15.996Z,7.10
2018-12-24T01:09:16.275Z,7.05
2018-12-24T01:10:16.563Z,6.99
2018-12-24T01:11:16.596Z,6.96
2018-12-24T01:12:24.340Z,6.94
2018-12-24T01:13:16.175Z,6.94
2018-12-24T01:14:16.432Z,6.94
2018-12-24T01:15:16.775Z,6.92
2018-12-24T01:16:16.031Z,6.92
2018-12-24T01:17:16.297Z,6.89
2018-12-24T01:18:16.572Z,6.92
2018-12-24T01:19:16.839Z,6.89
2018-12-24T01:20:16.106Z,6.92
2018-12-24T01:21:16.160Z,6.89
2018-12-24T01:22:16.420Z,6.89
2018-12-24T01:23:16.694Z,6.82
2018-12-24T01:24:16.967Z,6.91
2018-12-24T01:25:16.242Z,6.81
2018-12-24T01:26:16.518Z,6.75
2018-12-24T01:27:16.777Z,6.67
2018-12-24T01:28:16.042Z,6.71
2018-12-24T01:29:16.308Z,6.67
2018-12-24T01:30:16.576Z,6.74
2018-12-24T01:31:16.624Z,6.65
2018-12-24T01:32:16.882Z,6.57
2018-12-24T01:33:16.147Z,6.54
2018-12-24T01:34:16.413Z,6.54
2018-12-24T01:35:16.673Z,6.52
2018-12-24T01:36:16.941Z,6.49
2018-12-24T01:37:16.206Z,6.51
2018-12-24T01:38:16.475Z,6.49
2018-12-24T01:39:16.745Z,6.43
2018-12-24T01:40:16.025Z,6.43
2018-12-24T01:41:16.340Z,6.41
2018-12-24T01:42:16.606Z,6.41
2018-12-24T01:43:16.867Z,6.37
2018-12-24T01:44:16.139Z,6.41
2018-12-24T01:45:16.412Z,6.40
2018-12-24T01:46:16.676Z,6.40
2018-12-24T01:47:16.064Z,6.37
2018-12-24T01:48:16.328Z,6.40
2018-12-24T01:49:16.596Z,6.40
2018-12-24T01:50:16.863Z,6.34
2018-12-24T01:51:16.935Z,6.34
2018-12-24T01:52:16.211Z,6.30
2018-12-24T01:53:16.502Z,6.30
2018-12-24T01:54:16.779Z,6.36
2018-12-24T01:55:16.110Z,6.36
2018-12-24T01:56:16.373Z,6.27
2018-12-24T01:57:16.633Z,6.23
2018-12-24T01:58:16.901Z,6.20
2018-12-24T01:59:16.897Z,6.19
2018-12-24T02:00:16.271Z,6.23
2018-12-24T02:01:16.330Z,6.19
2018-12-24T02:02:16.602Z,6.13
2018-12-24T02:03:16.882Z,6.13
2018-12-24T02:04:16.154Z,6.10
2018-12-24T02:05:16.422Z,6.14
2018-12-24T02:06:16.692Z,6.13
2018-12-24T02:07:16.960Z,6.12
2018-12-24T02:08:16.226Z,6.20
2018-12-24T02:09:16.492Z,6.20
2018-12-24T02:10:16.760Z,6.19
2018-12-24T02:11:16.169Z,6.12
2018-12-24T02:12:16.432Z,6.08
2018-12-24T02:13:17.052Z,6.06
2018-12-24T02:14:16.320Z,6.03
2018-12-24T02:15:16.592Z,6.05
2018-12-24T02:16:16.865Z,6.00
2018-12-24T02:17:16.136Z,6.03
2018-12-24T02:18:16.397Z,6.03
2018-12-24T02:19:16.665Z,5.98
2018-12-24T02:20:16.962Z,5.98
2018-12-24T02:21:16.022Z,5.98
2018-12-24T02:22:16.292Z,5.95
2018-12-24T02:23:16.552Z,5.96
2018-12-24T02:24:16.817Z,5.92
2018-12-24T02:25:16.084Z,5.89
2018-12-24T02:26:16.354Z,5.91
2018-12-24T02:27:16.615Z,5.92
2018-12-24T02:28:16.984Z,5.89
2018-12-24T02:29:16.263Z,5.95
2018-12-24T02:30:16.546Z,5.95
2018-12-24T02:31:16.599Z,5.89
2018-12-24T02:32:16.863Z,5.92
2018-12-24T02:33:16.145Z,5.91
2018-12-24T02:34:16.418Z,5.88
2018-12-24T02:35:16.695Z,5.88
2018-12-24T02:36:16.971Z,5.86
2018-12-24T02:37:16.238Z,5.88
2018-12-24T02:38:16.495Z,5.89
2018-12-24T02:39:16.772Z,5.85
2018-12-24T02:40:16.061Z,5.86
2018-12-24T02:41:16.082Z,5.78
2018-12-24T02:42:16.366Z,5.81
2018-12-24T02:43:16.642Z,5.67
2018-12-24T02:44:16.907Z,5.64
2018-12-24T02:45:16.173Z,5.58
2018-12-24T02:46:16.439Z,5.60
2018-12-24T02:47:16.715Z,5.64
2018-12-24T02:48:15.981Z,5.65
2018-12-24T02:49:16.269Z,5.64
2018-12-24T02:50:16.559Z,5.58
2018-12-24T02:51:16.598Z,5.65
2018-12-24T02:52:16.871Z,5.57
2018-12-24T02:53:16.131Z,5.61
2018-12-24T02:54:16.398Z,5.57
2018-12-24T02:55:16.677Z,5.54
2018-12-24T02:56:16.946Z,5.57
2018-12-24T02:57:16.208Z,5.52
2018-12-24T02:58:16.500Z,5.52
2018-12-24T02:59:16.759Z,5.51
2018-12-24T03:00:16.051Z,5.50
2018-12-24T03:01:16.066Z,5.51
2018-12-24T03:02:16.682Z,5.50
2018-12-24T03:03:16.941Z,5.48
2018-12-24T03:04:16.219Z,5.48
2018-12-24T03:05:16.496Z,5.47
2018-12-24T03:06:16.758Z,5.45
2018-12-24T03:07:16.031Z,5.45
2018-12-24T03:08:16.300Z,5.45
2018-12-24T03:09:16.563Z,5.38
2018-12-24T03:10:16.851Z,5.34
2018-12-24T03:11:16.873Z,5.34
2018-12-24T03:12:16.143Z,5.33
2018-12-24T03:13:16.410Z,5.37
2018-12-24T03:14:16.678Z,5.30
2018-12-24T03:15:16.933Z,5.28
2018-12-24T03:16:16.202Z,5.26
2018-12-24T03:17:16.477Z,5.24
2018-12-24T03:18:16.755Z,5.23
2018-12-24T03:19:16.027Z,5.23
2018-12-24T03:20:16.298Z,5.22
2018-12-24T03:21:16.356Z,5.19
2018-12-24T03:22:16.623Z,5.16
2018-12-24T03:23:16.889Z,5.17
2018-12-24T03:24:16.477Z,5.13
2018-12-24T03:25:16.756Z,5.09
2018-12-24T03:26:16.035Z,5.10
2018-12-24T03:27:16.310Z,5.10
2018-12-24T03:28:16.582Z,5.10
2018-12-24T03:29:16.862Z,5.10
2018-12-24T03:30:16.149Z,5.07
2018-12-24T03:31:16.191Z,5.03
2018-12-24T03:32:16.525Z,4.98
2018-12-24T03:33:16.823Z,4.98
2018-12-24T03:34:16.106Z,4.96
2018-12-24T03:35:16.382Z,4.98
2018-12-24T03:36:16.645Z,5.00
2018-12-24T03:37:16.917Z,4.96
2018-12-24T03:38:16.189Z,4.99
2018-12-24T03:39:16.454Z,4.96
2018-12-24T03:40:16.718Z,4.96
2018-12-24T03:41:16.762Z,4.93
2018-12-24T03:42:16.031Z,4.95
2018-12-24T03:43:16.297Z,4.95
2018-12-24T03:44:16.572Z,4.92
2018-12-24T03:45:16.840Z,4.91
2018-12-24T03:46:16.114Z,4.93
2018-12-24T03:47:16.373Z,4.88
2018-12-24T03:48:16.633Z,4.86
2018-12-24T03:49:16.907Z,4.82
2018-12-24T03:50:16.198Z,4.78
2018-12-24T03:51:16.249Z,4.75
2018-12-24T03:52:16.508Z,4.78
2018-12-24T03:53:16.858Z,4.76
2018-12-24T03:54:16.130Z,4.72
2018-12-24T03:55:16.411Z,4.68
2018-12-24T03:56:16.679Z,4.69
2018-12-24T03:57:16.970Z,4.65
2018-12-24T03:58:16.238Z,4.64
2018-12-24T03:59:16.503Z,4.63
2018-12-24T04:00:16.797Z,4.63
2018-12-24T04:01:16.850Z,4.58
2018-12-24T04:02:16.116Z,4.60
2018-12-24T04:03:16.391Z,4.60
2018-12-24T04:04:16.659Z,4.57
2018-12-24T04:05:16.923Z,4.53
2018-12-24T04:06:16.188Z,4.51
2018-12-24T04:07:16.461Z,4.51
2018-12-24T04:08:16.727Z,4.54
2018-12-24T04:09:16.004Z,4.48
2018-12-24T04:10:16.294Z,4.50
2018-12-24T04:11:16.323Z,4.50
2018-12-24T04:12:16.596Z,4.50
2018-12-24T04:13:22.279Z,4.46
2018-12-24T04:14:16.244Z,4.44
2018-12-24T04:15:16.516Z,4.47
2018-12-24T04:16:16.783Z,4.46
2018-12-24T04:17:16.046Z,4.46
2018-12-24T04:18:16.311Z,4.44
2018-12-24T04:19:16.576Z,4.50
2018-12-24T04:20:16.849Z,4.43
2018-12-24T04:21:17.230Z,4.44
2018-12-24T04:22:16.496Z,4.40
2018-12-24T04:23:16.767Z,4.41
2018-12-24T04:24:16.043Z,4.44
2018-12-24T04:25:16.322Z,4.46
2018-12-24T04:26:16.593Z,4.41
2018-12-24T04:27:16.871Z,4.37
2018-12-24T04:28:16.158Z,4.34
2018-12-24T04:29:16.436Z,4.34
2018-12-24T04:30:16.716Z,4.21
2018-12-24T04:31:16.771Z,4.24
2018-12-24T04:32:16.064Z,4.21
2018-12-24T04:33:16.346Z,4.19
2018-12-24T04:34:16.624Z,4.13
2018-12-24T04:35:16.913Z,4.16
2018-12-24T04:36:16.190Z,4.14
2018-12-24T04:37:16.455Z,4.09
2018-12-24T04:38:16.733Z,4.06
2018-12-24T04:39:16.014Z,4.05
2018-12-24T04:40:16.293Z,4.00
2018-12-24T04:41:16.314Z,3.98
2018-12-24T04:42:16.608Z,3.98
2018-12-24T04:43:16.886Z,3.96
2018-12-24T04:44:16.174Z,3.95
2018-12-24T04:45:16.447Z,3.98
2018-12-24T04:46:16.732Z,3.93
2018-12-24T04:47:16.003Z,3.96
2018-12-24T04:48:16.286Z,3.98
2018-12-24T04:49:16.551Z,3.98
2018-12-24T04:50:16.835Z,3.98
2018-12-24T04:51:16.858Z,3.99
2018-12-24T04:52:16.127Z,3.98
2018-12-24T04:53:16.391Z,3.96
2018-12-24T04:54:16.671Z,3.99
2018-12-24T04:55:16.956Z,3.99
2018-12-24T04:56:16.233Z,3.99
2018-12-24T04:57:16.493Z,3.98
2018-12-24T04:58:16.764Z,3.96
2018-12-24T04:59:16.046Z,3.95
2018-12-24T05:00:16.321Z,3.98
2018-12-24T05:01:16.366Z,4.03
2018-12-24T05:02:16.625Z,4.00
2018-12-24T05:03:16.899Z,4.05
2018-12-24T05:04:16.169Z,4.05
2018-12-24T05:05:16.433Z,4.10
2018-12-24T05:06:16.705Z,4.13
2018-12-24T05:07:15.974Z,4.09
2018-12-24T05:08:16.229Z,4.12
2018-12-24T05:09:16.500Z,4.13
2018-12-24T05:10:16.770Z,4.13
2018-12-24T05:11:16.834Z,4.10
2018-12-24T05:12:16.095Z,4.17
2018-12-24T05:13:16.368Z,4.14
2018-12-24T05:14:16.621Z,4.10
2018-12-24T05:15:16.891Z,4.10
2018-12-24T05:16:16.155Z,4.09
2018-12-24T05:17:16.431Z,4.17
2018-12-24T05:18:16.705Z,4.14
2018-12-24T05:19:15.974Z,4.13
2018-12-24T05:20:16.263Z,4.10
2018-12-24T05:21:16.302Z,4.12
2018-12-24T05:22:16.557Z,4.10
2018-12-24T05:23:16.812Z,4.13
2018-12-24T05:24:16.080Z,4.12
2018-12-24T05:25:16.370Z,4.13
2018-12-24T05:26:16.692Z,4.12
2018-12-24T05:27:16.958Z,4.13
2018-12-24T05:28:16.238Z,4.10
2018-12-24T05:29:16.511Z,4.17
2018-12-24T05:30:16.809Z,4.17
2018-12-24T05:31:16.831Z,4.09
2018-12-24T05:32:16.101Z,4.14
2018-12-24T05:33:16.369Z,4.16
2018-12-24T05:34:16.629Z,4.17
2018-12-24T05:35:16.889Z,4.12
2018-12-24T05:36:16.157Z,4.13
2018-12-24T05:37:16.428Z,4.14
2018-12-24T05:38:16.689Z,4.16
2018-12-24T05:39:16.953Z,4.16
2018-12-24T05:40:16.221Z,4.12
2018-12-24T05:41:16.271Z,4.13
2018-12-24T05:42:16.535Z,4.14
2018-12-24T05:43:16.801Z,4.12
2018-12-24T05:44:16.087Z,4.14
2018-12-24T05:45:16.393Z,4.13
2018-12-24T05:46:16.650Z,4.16
2018-12-24T05:47:16.912Z,4.13
2018-12-24T05:48:16.170Z,4.14
2018-12-24T05:49:16.442Z,4.13
2018-12-24T05:50:16.711Z,4.12
2018-12-24T05:51:16.751Z,4.12
2018-12-24T05:52:16.021Z,4.13
2018-12-24T05:53:16.279Z,4.14
2018-12-24T05:54:16.541Z,4.12
2018-12-24T05:55:16.813Z,4.12
2018-12-24T05:56:16.068Z,4.13
2018-12-24T05:57:16.337Z,4.10
2018-12-24T05:58:16.602Z,4.10
2018-12-24T05:59:16.861Z,4.09
2018-12-24T06:00:16.127Z,4.12
2018-12-24T06:01:16.181Z,4.14
2018-12-24T06:02:16.450Z,4.16
2018-12-24T06:03:16.717Z,4.16
2018-12-24T06:04:15.984Z,4.16
2018-12-24T06:05:16.248Z,4.17
2018-12-24T06:06:16.512Z,4.16
2018-12-24T06:07:16.790Z,4.20
2018-12-24T06:08:16.061Z,4.17
2018-12-24T06:09:16.323Z,4.16
2018-12-24T06:10:16.592Z,4.16
2018-12-24T06:11:16.646Z,4.14
2018-12-24T06:12:16.914Z,4.13
2018-12-24T06:13:16.184Z,4.16
2018-12-24T06:14:16.450Z,4.12
2018-12-24T06:15:16.718Z,4.12
2018-12-24T06:16:15.984Z,4.14
2018-12-24T06:17:16.247Z,4.17
2018-12-24T06:18:16.507Z,4.19
2018-12-24T06:19:16.774Z,4.20
2018-12-24T06:20:16.048Z,4.16
2018-12-24T06:21:16.103Z,4.14
2018-12-24T06:22:16.365Z,4.17
2018-12-24T06:23:16.633Z,4.20
2018-12-24T06:24:16.891Z,4.26
2018-12-24T06:25:16.274Z,4.26
2018-12-24T06:26:16.536Z,4.20
2018-12-24T06:27:16.792Z,4.19
2018-12-24T06:28:16.063Z,4.23
2018-12-24T06:29:16.325Z,4.28
2018-12-24T06:30:16.584Z,4.24
2018-12-24T06:31:16.909Z,4.24
2018-12-24T06:32:16.174Z,4.27
2018-12-24T06:33:16.433Z,4.24
2018-12-24T06:34:16.689Z,4.24
2018-12-24T06:35:16.987Z,4.28
2018-12-24T06:36:16.345Z,4.23
2018-12-24T06:37:16.620Z,4.21
2018-12-24T06:38:16.880Z,4.23
2018-12-24T06:39:16.244Z,4.24
2018-12-24T06:40:16.520Z,4.31
2018-12-24T06:41:16.563Z,4.30
2018-12-24T06:42:18.155Z,4.30
2018-12-24T06:43:16.656Z,4.31
2018-12-24T06:44:16.922Z,4.36
2018-12-24T06:45:16.181Z,4.37
2018-12-24T06:46:16.446Z,4.34
2018-12-24T06:47:16.714Z,4.36
2018-12-24T06:48:15.997Z,4.33
2018-12-24T06:49:16.267Z,4.33
2018-12-24T06:50:16.550Z,4.33
2018-12-24T06:51:16.594Z,4.43
2018-12-24T06:52:16.873Z,4.38
2018-12-24T06:53:16.142Z,4.36
2018-12-24T06:54:16.410Z,4.34
2018-12-24T06:55:16.672Z,4.36
2018-12-24T06:56:16.940Z,4.34
2018-12-24T06:57:16.211Z,4.37
2018-12-24T06:58:16.468Z,4.34
2018-12-24T06:59:16.740Z,4.36
2018-12-24T07:00:16.014Z,4.34
2018-12-24T07:01:16.071Z,4.38
2018-12-24T07:02:16.339Z,4.40
2018-12-24T07:03:16.610Z,4.44
2018-12-24T07:04:16.875Z,4.44
2018-12-24T07:05:16.150Z,4.41
2018-12-24T07:06:16.407Z,4.44
2018-12-24T07:07:16.671Z,4.46
2018-12-24T07:08:16.930Z,4.47
2018-12-24T07:09:16.225Z,4.46
2018-12-24T07:10:16.500Z,4.46
2018-12-24T07:11:16.561Z,4.43
2018-12-24T07:12:16.826Z,4.37
2018-12-24T07:13:16.108Z,4.40
2018-12-24T07:14:16.368Z,4.40
2018-12-24T07:15:16.643Z,4.38
2018-12-24T07:16:16.915Z,4.41
2018-12-24T07:17:16.182Z,4.37
2018-12-24T07:18:16.448Z,4.44
2018-12-24T07:19:16.729Z,4.44
2018-12-24T07:20:16.045Z,4.47
2018-12-24T07:21:16.038Z,4.41
2018-12-24T07:22:16.309Z,4.43
2018-12-24T07:23:16.576Z,4.41
2018-12-24T07:24:16.841Z,4.46
2018-12-24T07:25:16.106Z,4.50
2018-12-24T07:26:16.370Z,4.51
2018-12-24T07:27:16.644Z,4.48
2018-12-24T07:28:16.913Z,4.48
2018-12-24T07:29:16.186Z,4.53
2018-12-24T07:30:16.468Z,4.50
2018-12-24T07:31:17.838Z,4.44
2018-12-24T07:32:16.266Z,4.44
2018-12-24T07:33:16.524Z,4.41
2018-12-24T07:34:16.804Z,4.50
2018-12-24T07:35:16.069Z,4.51
2018-12-24T07:36:16.336Z,4.50
2018-12-24T07:37:16.607Z,4.47
2018-12-24T07:38:16.882Z,4.50
2018-12-24T07:39:16.148Z,4.50
2018-12-24T07:40:16.426Z,4.58
2018-12-24T07:41:16.480Z,4.54
2018-12-24T07:42:16.736Z,4.48
2018-12-24T07:43:15.998Z,4.50
2018-12-24T07:44:23.898Z,4.51
2018-12-24T07:45:16.790Z,4.53
2018-12-24T07:46:16.049Z,4.55
2018-12-24T07:47:16.324Z,4.51
2018-12-24T07:48:16.592Z,4.46
2018-12-24T07:49:16.855Z,4.47
2018-12-24T07:50:16.129Z,4.53
2018-12-24T07:51:16.183Z,4.54
2018-12-24T07:52:16.442Z,4.57
2018-12-24T07:53:16.693Z,4.54
2018-12-24T07:54:16.959Z,4.61
2018-12-24T07:55:16.220Z,4.50
2018-12-24T07:56:16.484Z,4.54
2018-12-24T07:57:16.746Z,4.55
2018-12-24T07:58:16.009Z,4.51
2018-12-24T07:59:16.264Z,4.54
2018-12-24T08:00:16.541Z,4.57
2018-12-24T08:01:16.581Z,4.61
2018-12-24T08:02:17.072Z,4.55
2018-12-24T08:03:16.344Z,4.53
2018-12-24T08:04:16.613Z,4.55
2018-12-24T08:05:16.872Z,4.55
2018-12-24T08:06:16.210Z,4.58
2018-12-24T08:07:16.854Z,4.61
2018-12-24T08:08:16.118Z,4.68
2018-12-24T08:09:16.490Z,4.65
2018-12-24T08:10:16.777Z,4.61
2018-12-24T08:11:16.826Z,4.63
2018-12-24T08:12:16.090Z,4.64
2018-12-24T08:13:16.358Z,4.64
2018-12-24T08:14:16.617Z,4.63
2018-12-24T08:15:16.883Z,4.65
2018-12-24T08:16:16.151Z,4.65
2018-12-24T08:17:16.429Z,4.64
2018-12-24T08:18:16.694Z,4.67
2018-12-24T08:19:16.966Z,4.63
2018-12-24T08:20:16.266Z,4.67
2018-12-24T08:21:16.303Z,4.63
2018-12-24T08:22:16.583Z,4.63
2018-12-24T08:23:16.849Z,4.65
2018-12-24T08:24:16.120Z,4.71
2018-12-24T08:25:16.393Z,4.68
2018-12-24T08:26:16.658Z,4.68
2018-12-24T08:27:16.951Z,4.67
2018-12-24T08:28:16.211Z,4.69
2018-12-24T08:29:16.501Z,4.68
2018-12-24T08:30:16.770Z,4.68
2018-12-24T08:31:16.816Z,4.68
2018-12-24T08:32:16.083Z,4.67
2018-12-24T08:33:16.355Z,4.64
2018-12-24T08:34:16.621Z,4.65
2018-12-24T08:35:16.887Z,4.65
2018-12-24T08:36:16.165Z,4.63
2018-12-24T08:37:16.430Z,4.65
2018-12-24T08:38:16.696Z,4.71
2018-12-24T08:39:16.966Z,4.68
2018-12-24T08:40:16.241Z,4.65
2018-12-24T08:41:16.309Z,4.68
2018-12-24T08:42:16.574Z,4.68
2018-12-24T08:43:16.839Z,4.75
2018-12-24T08:44:16.114Z,4.75
2018-12-24T08:45:16.394Z,4.76
2018-12-24T08:46:16.662Z,4.75
2018-12-24T08:47:16.925Z,4.76
2018-12-24T08:48:16.191Z,4.76
2018-12-24T08:49:16.440Z,4.78
2018-12-24T08:50:16.724Z,4.82
2018-12-24T08:51:16.743Z,4.82
2018-12-24T08:52:16.011Z,4.85
2018-12-24T08:53:16.277Z,4.84
2018-12-24T08:54:16.537Z,4.85
2018-12-24T08:55:16.924Z,4.82
2018-12-24T08:56:16.180Z,4.86
2018-12-24T08:57:16.455Z,4.85
2018-12-24T08:58:16.720Z,4.86
2018-12-24T08:59:15.982Z,4.88
2018-12-24T09:00:16.285Z,4.98
2018-12-24T09:01:16.310Z,4.92
2018-12-24T09:02:16.588Z,4.89
2018-12-24T09:03:16.852Z,4.92
2018-12-24T09:04:16.110Z,4.98
2018-12-24T09:05:16.377Z,4.96
2018-12-24T09:06:16.659Z,4.95
2018-12-24T09:07:16.927Z,4.95
2018-12-24T09:08:16.192Z,4.93
2018-12-24T09:09:16.463Z,4.91
2018-12-24T09:10:16.738Z,4.95
2018-12-24T09:11:16.774Z,4.96
2018-12-24T09:12:16.038Z,4.98
2018-12-24T09:13:16.302Z,4.98
2018-12-24T09:14:16.568Z,4.96
2018-12-24T09:15:16.972Z,4.95
2018-12-24T09:16:16.247Z,4.93
2018-12-24T09:17:16.528Z,4.95
2018-12-24T09:18:16.801Z,4.96
2018-12-24T09:19:16.077Z,4.96
2018-12-24T09:20:16.359Z,4.96
2018-12-24T09:21:16.408Z,4.96
2018-12-24T09:22:16.947Z,4.91
2018-12-24T09:23:16.212Z,4.91
2018-12-24T09:24:16.488Z,4.95
2018-12-24T09:25:16.756Z,4.99
2018-12-24T09:26:16.012Z,4.91
2018-12-24T09:27:16.279Z,4.98
2018-12-24T09:28:16.540Z,4.96
2018-12-24T09:29:16.815Z,4.99
2018-12-24T09:30:16.111Z,5.02
2018-12-24T09:31:16.138Z,4.95
2018-12-24T09:32:16.424Z,5.03
2018-12-24T09:33:16.689Z,5.06
2018-12-24T09:34:16.958Z,5.02
2018-12-24T09:35:16.218Z,5.05
2018-12-24T09:36:16.490Z,5.05
2018-12-24T09:37:16.758Z,5.02
2018-12-24T09:38:16.034Z,5.03
2018-12-24T09:39:16.302Z,5.06
2018-12-24T09:40:16.566Z,5.06
2018-12-24T09:41:16.619Z,5.09
2018-12-24T09:42:16.876Z,5.10
2018-12-24T09:43:16.134Z,5.22
2018-12-24T09:44:16.397Z,5.24
2018-12-24T09:45:16.689Z,5.27
2018-12-24T09:46:16.949Z,5.30
2018-12-24T09:47:16.220Z,5.07
2018-12-24T09:48:16.478Z,5.19
2018-12-24T09:49:16.736Z,5.10
2018-12-24T09:50:16.009Z,5.10
2018-12-24T09:51:16.090Z,5.12
2018-12-24T09:52:16.376Z,5.16
2018-12-24T09:53:16.639Z,5.19
2018-12-24T09:54:16.911Z,5.26
2018-12-24T09:55:16.177Z,5.17
2018-12-24T09:56:16.442Z,5.24
2018-12-24T09:57:16.718Z,5.38
2018-12-24T09:58:15.983Z,5.37
2018-12-24T09:59:16.244Z,5.38
2018-12-24T10:00:16.518Z,5.43
2018-12-24T10:01:16.577Z,5.43
2018-12-24T10:02:17.108Z,5.40
2018-12-24T10:03:16.371Z,5.38
2018-12-24T10:04:16.639Z,5.40
2018-12-24T10:05:16.908Z,5.37
2018-12-24T10:06:16.173Z,5.41
2018-12-24T10:07:16.437Z,5.37
2018-12-24T10:08:16.706Z,5.38
2018-12-24T10:09:15.968Z,5.40
2018-12-24T10:10:16.245Z,5.33
2018-12-24T10:11:16.302Z,5.37
2018-12-24T10:12:16.560Z,5.38
2018-12-24T10:13:16.820Z,5.41
2018-12-24T10:14:16.084Z,5.48
2018-12-24T10:15:16.378Z,5.37
2018-12-24T10:16:16.644Z,5.44
2018-12-24T10:17:16.912Z,5.41
2018-12-24T10:18:16.184Z,5.41
2018-12-24T10:19:16.456Z,5.44
2018-12-24T10:20:16.753Z,5.41
2018-12-24T10:21:16.779Z,5.40
2018-12-24T10:22:16.035Z,5.40
2018-12-24T10:23:16.303Z,5.37
2018-12-24T10:24:16.570Z,5.40
2018-12-24T10:25:16.836Z,5.43
2018-12-24T10:26:16.095Z,5.38
2018-12-24T10:27:16.374Z,5.35
2018-12-24T10:28:16.644Z,5.38
2018-12-24T10:29:16.910Z,5.35
2018-12-24T10:30:16.189Z,5.40
2018-12-24T10:31:16.241Z,5.47
2018-12-24T10:32:16.510Z,5.35
2018-12-24T10:33:16.761Z,5.41
2018-12-24T10:34:16.027Z,5.45
2018-12-24T10:35:16.286Z,5.38
2018-12-24T10:36:16.563Z,5.35
2018-12-24T10:37:16.847Z,5.44
2018-12-24T10:38:16.122Z,5.47
2018-12-24T10:39:16.384Z,5.37
2018-12-24T10:40:16.657Z,5.37
2018-12-24T10:41:16.715Z,5.35
2018-12-24T10:42:15.975Z,5.40
2018-12-24T10:43:16.245Z,5.41
2018-12-24T10:44:16.506Z,5.47
2018-12-24T10:45:16.959Z,5.40
2018-12-24T10:46:16.262Z,5.45
2018-12-24T10:47:16.515Z,5.43
2018-12-24T10:48:16.781Z,5.45
2018-12-24T10:49:16.059Z,5.44
2018-12-24T10:50:16.339Z,5.47
2018-12-24T10:51:16.380Z,5.50
2018-12-24T10:52:16.648Z,5.47
2018-12-24T10:53:16.930Z,5.38
2018-12-24T10:54:16.213Z,5.43
2018-12-24T10:55:16.480Z,5.41
2018-12-24T10:56:16.736Z,5.45
2018-12-24T10:57:16.000Z,5.45
2018-12-24T10:58:16.263Z,5.45
2018-12-24T10:59:16.524Z,5.48
2018-12-24T11:00:16.808Z,5.44
2018-12-24T11:01:16.863Z,5.47
2018-12-24T11:02:16.117Z,5.44
2018-12-24T11:03:16.392Z,5.47
2018-12-24T11:04:16.652Z,5.48
2018-12-24T11:05:16.938Z,5.44
2018-12-24T11:06:16.197Z,5.43
2018-12-24T11:07:16.476Z,5.44
2018-12-24T11:08:16.777Z,5.40
2018-12-24T11:09:16.068Z,5.47
2018-12-24T11:10:16.343Z,5.47
2018-12-24T11:11:16.410Z,5.43
2018-12-24T11:12:16.674Z,5.43
2018-12-24T11:13:16.939Z,5.43
2018-12-24T11:14:16.198Z,5.44
2018-12-24T11:15:21.286Z,5.44
2018-12-24T11:16:16.513Z,5.41
2018-12-24T11:17:16.780Z,5.48
2018-12-24T11:18:16.356Z,5.50
2018-12-24T11:19:16.622Z,5.48
2018-12-24T11:20:16.895Z,5.45
2018-12-24T11:21:16.951Z,5.45
2018-12-24T11:22:16.215Z,5.43
2018-12-24T11:23:16.482Z,5.48
2018-12-24T11:24:16.750Z,5.52
2018-12-24T11:25:16.018Z,5.51
2018-12-24T11:26:16.290Z,5.47
2018-12-24T11:27:16.546Z,5.48
2018-12-24T11:28:16.825Z,5.51
2018-12-24T11:29:16.087Z,5.52
2018-12-24T11:30:16.365Z,5.57
2018-12-24T11:31:16.415Z,5.48
2018-12-24T11:32:16.686Z,5.48
2018-12-24T11:33:16.948Z,5.45
2018-12-24T11:34:16.216Z,5.47
2018-12-24T11:35:16.486Z,5.47
2018-12-24T11:36:16.763Z,5.44
2018-12-24T11:37:16.030Z,5.52
2018-12-24T11:38:16.297Z,5.48
2018-12-24T11:39:16.581Z,5.45
2018-12-24T11:40:16.847Z,5.48
2018-12-24T11:41:16.895Z,5.52
2018-12-24T11:42:16.161Z,5.51
2018-12-24T11:43:16.428Z,5.51
2018-12-24T11:44:16.723Z,5.55
2018-12-24T11:45:15.991Z,5.55
2018-12-24T11:46:16.597Z,5.55
2018-12-24T11:47:16.871Z,5.61
2018-12-24T11:48:16.138Z,5.57
2018-12-24T11:49:16.404Z,5.54
2018-12-24T11:50:16.670Z,5.54
2018-12-24T11:51:16.730Z,5.52
2018-12-24T11:52:15.997Z,5.57
2018-12-24T11:53:16.272Z,5.55
2018-12-24T11:54:16.559Z,5.64
2018-12-24T11:55:16.823Z,5.67
2018-12-24T11:56:16.091Z,5.61
2018-12-24T11:57:16.360Z,5.60
2018-12-24T11:58:16.789Z,5.61
2018-12-24T11:59:16.119Z,5.68
2018-12-24T12:00:16.392Z,5.68
2018-12-24T12:01:16.444Z,5.65
2018-12-24T12:02:16.713Z,5.72
2018-12-24T12:03:15.998Z,5.67
2018-12-24T12:04:16.261Z,5.65
2018-12-24T12:05:16.530Z,5.70
2018-12-24T12:06:19.793Z,5.67
2018-12-24T12:07:16.429Z,5.67
2018-12-24T12:08:16.692Z,5.67
2018-12-24T12:09:16.957Z,5.72
2018-12-24T12:10:16.219Z,5.70
2018-12-24T12:11:16.278Z,5.71
2018-12-24T12:12:16.545Z,5.72
2018-12-24T12:13:16.807Z,5.82
2018-12-24T12:14:16.076Z,5.77
2018-12-24T12:15:16.341Z,5.77
2018-12-24T12:16:16.603Z,5.77
2018-12-24T12:17:16.866Z,5.77
2018-12-24T12:18:16.127Z,5.79
2018-12-24T12:19:16.387Z,5.82
2018-12-24T12:20:16.658Z,5.81
2018-12-24T12:21:16.721Z,5.82
2018-12-24T12:22:15.988Z,5.82
2018-12-24T12:23:16.243Z,5.93
2018-12-24T12:24:16.504Z,5.85
2018-12-24T12:25:16.766Z,5.86
2018-12-24T12:26:16.026Z,5.79
2018-12-24T12:27:16.298Z,5.71
2018-12-24T12:28:17.223Z,5.74
2018-12-24T12:29:16.591Z,5.75
2018-12-24T12:30:16.857Z,5.75
2018-12-24T12:31:16.917Z,5.78
2018-12-24T12:32:16.184Z,5.78
2018-12-24T12:33:16.440Z,5.79
2018-12-24T12:34:16.710Z,5.81
2018-12-24T12:35:15.995Z,5.68
2018-12-24T12:36:16.254Z,5.64
2018-12-24T12:37:16.517Z,5.67
2018-12-24T12:38:16.782Z,5.41
2018-12-24T12:39:16.043Z,5.41
2018-12-24T12:40:16.315Z,5.40
2018-12-24T12:41:16.362Z,5.34
2018-12-24T12:42:17.716Z,5.26
2018-12-24T12:43:16.390Z,5.20
2018-12-24T12:44:16.650Z,5.20
2018-12-24T12:45:16.917Z,5.13
2018-12-24T12:46:16.185Z,5.14
2018-12-24T12:47:16.445Z,5.06
2018-12-24T12:48:16.704Z,5.12
2018-12-24T12:49:15.982Z,5.13
2018-12-24T12:50:16.284Z,5.10
2018-12-24T12:51:16.307Z,5.05
2018-12-24T12:52:16.578Z,4.96
2018-12-24T12:53:16.964Z,5.02
2018-12-24T12:54:16.235Z,4.96
2018-12-24T12:55:16.502Z,5.02
2018-12-24T12:56:16.757Z,4.96
2018-12-24T12:57:16.030Z,4.98
2018-12-24T12:58:16.302Z,4.96
2018-12-24T12:59:16.583Z,4.95
2018-12-24T13:00:16.866Z,5.03
2018-12-24T13:01:16.924Z,5.06
2018-12-24T13:02:16.186Z,5.03
2018-12-24T13:03:16.559Z,4.95
2018-12-24T13:04:16.824Z,4.96
2018-12-24T13:05:16.089Z,4.95
2018-12-24T13:06:16.356Z,4.78
2018-12-24T13:07:16.634Z,4.74
2018-12-24T13:08:16.902Z,4.67
2018-12-24T13:09:16.167Z,4.55
2018-12-24T13:10:16.434Z,4.57
2018-12-24T13:11:16.506Z,4.44
2018-12-24T13:12:16.774Z,4.44
2018-12-24T13:13:16.030Z,4.38
2018-12-24T13:14:16.293Z,4.27
2018-12-24T13:15:16.559Z,4.24
2018-12-24T13:16:16.824Z,4.17
2018-12-24T13:17:16.091Z,4.19
2018-12-24T13:18:16.352Z,4.21